Time;durP1;ratioP1;P1;durP2;ratioP2;P2;SDS_P1;SDS_P2;PMS_P1;PMS_P2;Temp;Humidity;BMP_temperature;BMP_pressure;BME280_temperature;BME280_humidity;BME280_pressure;Samples;Min_cycle;Max_cycle;Signal;HPM_P1;HPM_P2
2022/06/03 00:02:27;;;;;;;9.73;6.03;;;17.00;81.10;;;;;;5040146;28;20418;-73
2022/06/03 00:05:08;;;;;;;9.80;5.63;;;17.10;79.90;;;;;;5040742;28;20470;-74
2022/06/03 00:07:39;;;;;;;7.03;5.77;;;17.20;79.20;;;;;;5035388;28;20444;-73
2022/06/03 00:10:10;;;;;;;7.20;5.53;;;17.20;78.30;;;;;;5042513;28;20454;-74
2022/06/03 00:13:08;;;;;;;13.80;5.90;;;17.20;78.70;;;;;;5042469;28;20969;-72
2022/06/03 00:15:46;;;;;;;7.30;5.40;;;17.10;79.30;;;;;;5042144;28;20561;-73
2022/06/03 00:18:14;;;;;;;8.53;6.57;;;17.10;79.30;;;;;;5039326;28;20480;-74
2022/06/03 00:21:02;;;;;;;8.97;6.30;;;17.00;79.50;;;;;;5047149;28;20472;-73
2022/06/03 00:23:56;;;;;;;7.80;5.73;;;17.00;79.70;;;;;;5039940;28;20435;-74
2022/06/03 00:26:33;;;;;;;9.97;5.97;;;17.00;80.00;;;;;;5040291;28;20490;-72
2022/06/03 00:29:19;;;;;;;8.47;5.67;;;16.90;80.90;;;;;;5042830;28;20425;-74
2022/06/03 00:32:07;;;;;;;7.83;5.57;;;17.00;81.70;;;;;;5029184;28;20852;-73
2022/06/03 00:34:46;;;;;;;7.20;5.50;;;16.80;82.40;;;;;;5041464;28;20456;-73
2022/06/03 00:37:33;;;;;;;6.53;5.40;;;16.80;83.00;;;;;;5043793;28;20469;-73
2022/06/03 00:40:10;;;;;;;8.50;5.83;;;16.80;83.00;;;;;;5038794;28;20879;-75
2022/06/03 00:43:02;;;;;;;8.40;5.33;;;16.70;83.30;;;;;;5043733;28;20793;-73
2022/06/03 00:45:37;;;;;;;7.37;5.60;;;16.70;83.10;;;;;;5034528;28;20566;-72
2022/06/03 00:48:12;;;;;;;8.50;5.77;;;16.70;83.00;;;;;;5038580;28;20423;-73
2022/06/03 00:50:50;;;;;;;7.33;5.77;;;16.60;83.00;;;;;;5049212;28;20434;-72
2022/06/03 00:53:40;;;;;;;9.73;6.60;;;16.70;83.10;;;;;;5037526;28;20936;-74
2022/06/03 00:56:26;;;;;;;7.53;5.63;;;16.60;83.10;;;;;;5038556;28;20466;-73
2022/06/03 00:59:07;;;;;;;8.23;5.90;;;16.60;83.10;;;;;;5035272;28;21439;-74
2022/06/03 01:02:10;;;;;;;6.67;5.60;;;16.60;83.10;;;;;;5041963;28;20417;-74
2022/06/03 01:05:02;;;;;;;8.17;5.20;;;16.50;82.70;;;;;;5034447;28;20463;-72
2022/06/03 01:07:44;;;;;;;6.90;5.90;;;16.50;83.10;;;;;;5039505;28;20447;-72
2022/06/03 01:10:10;;;;;;;6.80;5.83;;;16.50;83.70;;;;;;5037870;28;20433;-74
2022/06/03 01:12:57;;;;;;;6.50;5.50;;;16.40;84.00;;;;;;5035696;28;20804;-72
2022/06/03 01:15:50;;;;;;;7.43;5.87;;;16.30;84.10;;;;;;5039778;28;20226;-72
2022/06/03 01:18:49;;;;;;;10.60;6.53;;;16.10;84.90;;;;;;5043356;28;20419;-73
2022/06/03 01:21:56;;;;;;;9.40;5.57;;;16.10;84.70;;;;;;5040572;28;20432;-72
2022/06/03 01:24:59;;;;;;;7.90;5.77;;;16.20;84.30;;;;;;5036934;28;20444;-72
2022/06/03 01:27:32;;;;;;;8.50;6.47;;;16.30;83.70;;;;;;4996625;28;20450;-73
2022/06/03 01:30:43;;;;;;;8.37;6.60;;;16.30;83.30;;;;;;5024280;28;20427;-73
2022/06/03 01:33:35;;;;;;;7.33;5.50;;;16.10;84.00;;;;;;5036404;28;20431;-73
2022/06/03 01:36:23;;;;;;;8.67;6.10;;;16.10;84.10;;;;;;5037524;28;20613;-72
2022/06/03 01:39:10;;;;;;;8.03;6.27;;;16.10;84.00;;;;;;5007986;28;20439;-72
2022/06/03 01:42:14;;;;;;;7.53;5.77;;;16.00;84.40;;;;;;5033161;28;20423;-72
2022/06/03 01:44:55;;;;;;;8.13;6.00;;;16.10;84.10;;;;;;5001692;28;20945;-71
2022/06/03 01:48:08;;;;;;;9.30;6.67;;;16.10;84.00;;;;;;5037832;28;20443;-71
2022/06/03 01:50:46;;;;;;;6.70;5.37;;;16.00;84.30;;;;;;5034731;28;20421;-74
2022/06/03 01:53:23;;;;;;;7.00;5.23;;;16.10;84.90;;;;;;5031848;28;20908;-74
2022/06/03 01:56:14;;;;;;;8.27;5.70;;;16.00;85.20;;;;;;5034964;28;20461;-73
2022/06/03 01:58:42;;;;;;;7.00;5.40;;;16.00;85.30;;;;;;5035046;28;20576;-72
2022/06/03 02:01:38;;;;;;;8.07;5.87;;;16.00;85.50;;;;;;5031045;28;20439;-73
2022/06/03 02:04:18;;;;;;;7.37;5.20;;;16.00;85.50;;;;;;5037213;28;20421;-72
2022/06/03 02:06:53;;;;;;;9.67;6.73;;;16.00;85.50;;;;;;5042388;28;21117;-71
2022/06/03 02:09:51;;;;;;;9.27;6.03;;;16.10;85.30;;;;;;5037565;28;20446;-72
2022/06/03 02:12:42;;;;;;;9.50;7.13;;;16.00;85.50;;;;;;5040806;28;20417;-72
2022/06/03 02:15:17;;;;;;;7.53;5.77;;;15.90;85.50;;;;;;5034104;28;20432;-73
2022/06/03 02:18:00;;;;;;;9.63;7.00;;;15.90;85.60;;;;;;5042112;28;20422;-72
2022/06/03 02:20:49;;;;;;;9.43;6.50;;;15.90;85.30;;;;;;5041959;28;20446;-72
2022/06/03 02:23:33;;;;;;;8.37;6.33;;;15.90;85.30;;;;;;5036408;28;20533;-72
2022/06/03 02:26:23;;;;;;;14.00;7.90;;;16.00;85.20;;;;;;5038959;28;20477;-73
2022/06/03 02:32:32;;;;;;;8.47;6.90;;;15.90;85.50;;;;;;5051118;28;20888;-72
2022/06/03 02:35:00;;;;;;;9.97;6.50;;;15.90;86.00;;;;;;5040986;28;20452;-73
2022/06/03 02:37:41;;;;;;;11.50;6.43;;;15.90;85.90;;;;;;5038317;28;20438;-72
2022/06/03 02:40:35;;;;;;;7.90;5.97;;;15.90;86.00;;;;;;5044687;28;20834;-73
2022/06/03 02:43:38;;;;;;;10.40;5.77;;;15.90;86.00;;;;;;5035835;28;20409;-72
2022/06/03 02:46:49;;;;;;;7.87;5.60;;;15.90;86.00;;;;;;5040795;28;20882;-71
2022/06/03 02:49:21;;;;;;;7.30;5.80;;;16.00;85.90;;;;;;5040153;28;20414;-72
2022/06/03 02:51:55;;;;;;;6.47;5.27;;;16.00;85.60;;;;;;5039541;28;20415;-72
2022/06/03 02:54:44;;;;;;;8.90;5.73;;;15.90;85.60;;;;;;5043144;28;20423;-72
2022/06/03 02:57:31;;;;;;;7.27;5.43;;;15.90;85.90;;;;;;5048189;28;20561;-72
2022/06/03 03:00:16;;;;;;;8.20;6.03;;;15.90;85.90;;;;;;5039618;28;20417;-73
2022/06/03 03:03:23;;;;;;;6.70;5.87;;;16.00;85.90;;;;;;5041570;28;20423;-72
2022/06/03 03:06:04;;;;;;;8.70;5.90;;;16.00;85.60;;;;;;5054429;28;20884;-72
2022/06/03 03:08:33;;;;;;;9.37;6.77;;;16.00;85.60;;;;;;5044825;28;20443;-72
2022/06/03 03:11:11;;;;;;;7.83;6.87;;;15.90;85.70;;;;;;5038340;28;20426;-72
2022/06/03 03:14:11;;;;;;;9.20;5.70;;;15.90;85.90;;;;;;5040757;28;20755;-72
2022/06/03 03:16:58;;;;;;;7.10;6.23;;;16.00;85.20;;;;;;5038601;28;20552;-72
2022/06/03 03:19:49;;;;;;;9.83;5.83;;;16.00;84.70;;;;;;5040287;28;20426;-73
2022/06/03 03:22:36;;;;;;;9.83;5.97;;;16.00;84.70;;;;;;5042655;28;20430;-72
2022/06/03 03:25:23;;;;;;;7.27;6.30;;;16.00;84.70;;;;;;5043417;28;20844;-74
2022/06/03 03:27:59;;;;;;;8.70;6.20;;;15.90;84.60;;;;;;5039879;28;20512;-71
2022/06/03 03:30:38;;;;;;;10.40;7.17;;;15.90;85.20;;;;;;5043023;28;20894;-72
2022/06/03 03:33:19;;;;;;;11.13;6.97;;;15.90;85.00;;;;;;5036508;28;20410;-72
2022/06/03 03:36:05;;;;;;;6.90;5.77;;;15.90;85.00;;;;;;5040528;28;20451;-73
2022/06/03 03:39:15;;;;;;;7.40;5.90;;;16.00;84.60;;;;;;5034456;28;20798;-72
2022/06/03 03:41:55;;;;;;;9.67;6.90;;;15.90;84.90;;;;;;5043801;28;20515;-71
2022/06/03 03:44:27;;;;;;;15.10;6.53;;;15.80;85.20;;;;;;5046491;28;20453;-71
2022/06/03 03:46:56;;;;;;;7.80;6.10;;;15.80;85.50;;;;;;5050809;28;20479;-75
2022/06/03 03:49:36;;;;;;;9.93;6.77;;;15.90;85.30;;;;;;5050133;28;20434;-74
2022/06/03 03:52:21;;;;;;;7.00;5.60;;;15.90;85.00;;;;;;5041819;28;20422;-73
2022/06/03 03:55:35;;;;;;;9.47;6.10;;;15.90;85.00;;;;;;5050765;28;20425;-73
2022/06/03 03:58:23;;;;;;;5.80;5.27;;;15.90;85.20;;;;;;5046076;28;20678;-73
2022/06/03 04:01:07;;;;;;;9.43;6.33;;;15.80;85.50;;;;;;5044435;28;21195;-74
2022/06/03 04:03:47;;;;;;;8.47;6.83;;;15.80;85.50;;;;;;5038186;28;20427;-73
2022/06/03 04:06:44;;;;;;;7.33;5.60;;;15.70;85.60;;;;;;5036382;28;20510;-73
2022/06/03 04:09:31;;;;;;;9.97;6.77;;;15.70;85.90;;;;;;5040456;28;20422;-73
2022/06/03 04:12:24;;;;;;;8.20;6.37;;;15.60;85.90;;;;;;5034961;28;20454;-72
2022/06/03 04:14:59;;;;;;;9.70;7.27;;;15.60;86.00;;;;;;5041026;28;20934;-73
2022/06/03 04:17:43;;;;;;;14.20;8.00;;;15.50;86.30;;;;;;5035806;28;20443;-74
2022/06/03 04:20:48;;;;;;;9.17;7.30;;;15.50;86.60;;;;;;5035136;28;20551;-72
2022/06/03 04:23:23;;;;;;;10.00;6.53;;;15.50;87.00;;;;;;5040535;28;20496;-72
2022/06/03 04:26:07;;;;;;;9.00;6.67;;;15.50;87.30;;;;;;5039245;28;20484;-75
2022/06/03 04:28:53;;;;;;;8.90;6.40;;;15.50;87.10;;;;;;5042693;28;21022;-73
2022/06/03 04:31:27;;;;;;;10.27;7.47;;;15.60;87.00;;;;;;5062589;28;20425;-73
2022/06/03 04:34:25;;;;;;;7.70;6.03;;;15.60;86.90;;;;;;5042543;28;20418;-73
2022/06/03 04:36:59;;;;;;;9.30;7.27;;;15.60;87.00;;;;;;5044399;28;20861;-74
2022/06/03 04:39:54;;;;;;;9.97;6.80;;;15.70;87.10;;;;;;5035795;28;20422;-73
2022/06/03 04:42:54;;;;;;;8.87;7.00;;;15.70;87.10;;;;;;5043803;28;20423;-73
2022/06/03 04:45:56;;;;;;;9.80;7.03;;;15.80;86.80;;;;;;5038443;28;20565;-74
2022/06/03 04:48:30;;;;;;;9.00;6.50;;;15.90;86.30;;;;;;5044034;28;20419;-74
2022/06/03 04:51:33;;;;;;;9.37;7.70;;;15.90;86.30;;;;;;5042135;28;20438;-75
2022/06/03 04:54:17;;;;;;;9.80;7.00;;;16.10;85.60;;;;;;5039019;28;20448;-79
2022/06/03 04:57:17;;;;;;;10.37;7.43;;;16.10;85.20;;;;;;5049465;28;20458;-75
2022/06/03 04:59:51;;;;;;;10.70;8.07;;;16.10;85.50;;;;;;5048915;28;20434;-74
2022/06/03 05:02:36;;;;;;;10.97;7.80;;;16.20;85.20;;;;;;5047147;28;20414;-75
2022/06/03 05:05:10;;;;;;;10.47;8.00;;;16.30;84.40;;;;;;5045892;28;20457;-74
2022/06/03 05:08:04;;;;;;;12.67;8.57;;;16.30;84.10;;;;;;5042107;28;20442;-74
2022/06/03 05:11:02;;;;;;;12.40;8.20;;;16.30;84.10;;;;;;5046832;28;20446;-73
2022/06/03 05:14:04;;;;;;;12.83;8.27;;;16.40;84.00;;;;;;5044167;28;20426;-74
2022/06/03 05:17:04;;;;;;;11.40;8.50;;;16.40;83.80;;;;;;5037107;28;20491;-75
2022/06/03 05:20:03;;;;;;;12.03;8.03;;;16.50;83.70;;;;;;5041395;28;20443;-74
2022/06/03 05:22:44;;;;;;;13.67;7.70;;;16.60;83.30;;;;;;5034514;28;20418;-70
2022/06/03 05:25:22;;;;;;;10.27;7.70;;;16.60;83.00;;;;;;5045892;28;20465;-74
2022/06/03 05:28:33;;;;;;;12.23;8.13;;;16.70;82.80;;;;;;5042275;28;20409;-76
2022/06/03 05:31:36;;;;;;;13.03;8.80;;;16.80;82.40;;;;;;5063087;28;20415;-73
2022/06/03 05:34:25;;;;;;;13.10;9.17;;;16.70;82.40;;;;;;5038656;28;20426;-74
2022/06/03 05:37:21;;;;;;;12.23;9.07;;;16.70;82.70;;;;;;5044940;28;20458;-73
2022/06/03 05:39:53;;;;;;;10.17;7.80;;;16.80;82.40;;;;;;5046951;28;20423;-77
2022/06/03 05:42:46;;;;;;;10.10;8.17;;;16.90;82.40;;;;;;5042651;28;20518;-74
2022/06/03 05:45:46;;;;;;;10.07;7.50;;;17.10;81.80;;;;;;5034225;28;20995;-75
2022/06/03 05:48:42;;;;;;;13.20;8.87;;;17.30;81.50;;;;;;5045009;28;20424;-74
2022/06/03 05:51:45;;;;;;;11.07;8.30;;;17.50;80.90;;;;;;5050623;28;20427;-73
2022/06/03 05:54:38;;;;;;;15.87;9.33;;;17.60;80.20;;;;;;5049514;28;20487;-74
2022/06/03 05:57:30;;;;;;;21.53;10.10;;;17.60;80.00;;;;;;5050364;28;20457;-75
2022/06/03 06:00:21;;;;;;;15.10;9.20;;;17.70;79.60;;;;;;5041865;28;20421;-73
2022/06/03 06:03:00;;;;;;;19.60;11.13;;;17.80;79.50;;;;;;5050294;28;20407;-75
2022/06/03 06:05:37;;;;;;;15.17;10.87;;;17.80;79.20;;;;;;5043860;28;20514;-76
2022/06/03 06:08:38;;;;;;;15.33;10.97;;;17.90;79.30;;;;;;5042860;28;20423;-77
2022/06/03 06:11:33;;;;;;;14.80;10.20;;;17.90;79.20;;;;;;5046368;28;20460;-74
2022/06/03 06:14:17;;;;;;;15.90;10.20;;;18.10;79.00;;;;;;5042177;28;20427;-73
2022/06/03 06:16:44;;;;;;;15.33;8.93;;;18.30;78.10;;;;;;5047208;28;20461;-74
2022/06/03 06:19:36;;;;;;;15.80;11.17;;;18.40;78.10;;;;;;5044583;28;21095;-75
2022/06/03 06:22:29;;;;;;;19.00;10.33;;;18.60;77.70;;;;;;5046129;28;20506;-73
2022/06/03 06:25:06;;;;;;;20.00;9.97;;;18.60;77.40;;;;;;5054548;28;20466;-72
2022/06/03 06:27:50;;;;;;;14.30;10.30;;;18.70;77.40;;;;;;5057902;28;20933;-74
2022/06/03 06:30:36;;;;;;;15.10;9.90;;;18.80;77.30;;;;;;5063961;28;20429;-73
2022/06/03 06:33:34;;;;;;;12.27;9.03;;;18.90;76.80;;;;;;5059339;28;20427;-73
2022/06/03 06:36:34;;;;;;;22.40;10.60;;;19.00;76.50;;;;;;5042604;28;20460;-72
2022/06/03 06:38:59;;;;;;;18.93;9.00;;;19.10;76.10;;;;;;5047353;28;20513;-74
2022/06/03 06:41:44;;;;;;;14.80;9.33;;;19.00;75.80;;;;;;5043621;28;20486;-73
2022/06/03 06:44:31;;;;;;;13.40;9.07;;;19.10;75.70;;;;;;5045777;28;20189;-74
2022/06/03 06:47:06;;;;;;;11.97;9.30;;;19.00;75.90;;;;;;5043462;28;20458;-74
2022/06/03 06:50:16;;;;;;;12.70;8.93;;;19.10;76.10;;;;;;5046678;28;20411;-75
2022/06/03 06:53:08;;;;;;;12.63;8.80;;;19.40;75.40;;;;;;5053520;28;20420;-74
2022/06/03 06:55:41;;;;;;;13.83;9.13;;;19.50;75.10;;;;;;5045003;28;20594;-75
2022/06/03 06:58:34;;;;;;;12.30;8.57;;;19.60;74.30;;;;;;5043222;28;20529;-73
2022/06/03 07:01:03;;;;;;;16.00;9.20;;;19.70;74.60;;;;;;4985856;28;20523;-72
2022/06/03 07:03:46;;;;;;;12.70;8.97;;;19.80;73.90;;;;;;5030200;28;20509;-73
2022/06/03 07:06:42;;;;;;;11.50;8.37;;;19.80;74.00;;;;;;5044386;28;20601;-74
2022/06/03 07:09:11;;;;;;;33.17;10.73;;;19.90;74.00;;;;;;4996072;28;20428;-74
2022/06/03 07:12:16;;;;;;;15.23;8.23;;;19.90;74.20;;;;;;5045064;28;20433;-76
2022/06/03 07:14:54;;;;;;;12.83;8.80;;;20.10;73.90;;;;;;5030066;28;20466;-75
2022/06/03 07:21:03;;;;;;;11.73;7.90;;;20.30;73.00;;;;;;4954616;28;20487;-74
2022/06/03 07:24:00;;;;;;;18.70;8.60;;;20.40;73.20;;;;;;4935675;28;20436;-73
2022/06/03 07:26:35;;;;;;;12.90;7.90;;;20.50;73.30;;;;;;4956375;28;20620;-75
2022/06/03 07:29:12;;;;;;;10.43;8.37;;;20.60;73.00;;;;;;4953835;28;20964;-74
2022/06/03 07:31:47;;;;;;;12.87;8.40;;;20.70;72.00;;;;;;4961923;28;20577;-74
2022/06/03 07:34:51;;;;;;;11.93;8.20;;;20.80;72.30;;;;;;4959314;28;20432;-75
2022/06/03 07:37:34;;;;;;;10.83;7.50;;;20.90;71.70;;;;;;4957981;28;20479;-73
2022/06/03 07:40:04;;;;;;;10.03;8.20;;;21.00;71.70;;;;;;4951354;28;20459;-74
2022/06/03 07:42:41;;;;;;;12.97;7.40;;;21.20;71.30;;;;;;4959645;28;20444;-74
2022/06/03 07:45:43;;;;;;;16.20;8.57;;;21.30;71.30;;;;;;4959663;28;20929;-72
2022/06/03 07:48:16;;;;;;;12.37;8.33;;;21.50;70.50;;;;;;4962710;28;20428;-75
2022/06/03 07:50:58;;;;;;;12.70;7.97;;;21.50;69.80;;;;;;4961325;28;20519;-75
2022/06/03 07:53:41;;;;;;;11.50;8.40;;;21.70;69.70;;;;;;4956409;28;20432;-76
2022/06/03 07:56:07;;;;;;;9.03;7.10;;;21.80;69.20;;;;;;5043010;28;20848;-75
2022/06/03 07:58:37;;;;;;;18.57;7.80;;;21.90;69.10;;;;;;5047785;28;20459;-75
2022/06/03 08:01:28;;;;;;;10.70;7.90;;;22.00;68.80;;;;;;5048000;28;20451;-76
2022/06/03 08:03:54;;;;;;;13.77;7.03;;;22.00;68.80;;;;;;5050447;28;20584;-74
2022/06/03 08:10:56;;;;;;;7.73;6.23;;;22.10;68.60;;;;;;5044837;28;20478;-74
2022/06/03 08:12:28;;;;;;;11.03;7.17;;;22.20;68.20;;;;;;5048454;28;20470;-74
2022/06/03 08:14:54;;;;;;;12.00;7.23;;;22.40;68.30;;;;;;5051002;28;20423;-74
2022/06/03 08:17:20;;;;;;;14.10;8.80;;;22.50;67.60;;;;;;5047917;28;20464;-77
2022/06/03 08:19:47;;;;;;;9.50;7.27;;;22.50;67.50;;;;;;5047754;28;20404;-74
2022/06/03 08:22:17;;;;;;;13.70;8.93;;;22.60;67.50;;;;;;5047276;28;20438;-73
2022/06/03 08:24:52;;;;;;;12.03;8.13;;;22.60;67.50;;;;;;5046540;28;20432;-77
2022/06/03 08:27:24;;;;;;;10.77;7.33;;;22.60;67.50;;;;;;5042684;28;21002;-74
2022/06/03 08:30:11;;;;;;;9.97;7.43;;;22.70;67.30;;;;;;5041112;28;20421;-74
2022/06/03 08:33:00;;;;;;;8.33;6.50;;;22.70;67.30;;;;;;5045160;28;20933;-77
2022/06/03 08:35:31;;;;;;;11.67;7.03;;;22.90;67.50;;;;;;5036793;28;20544;-76
2022/06/03 08:38:04;;;;;;;9.03;7.10;;;22.90;67.00;;;;;;5043400;28;20445;-75
2022/06/03 08:41:02;;;;;;;11.30;7.27;;;23.00;67.20;;;;;;5051011;28;20429;-75
2022/06/03 08:43:42;;;;;;;8.93;7.00;;;23.10;67.00;;;;;;5050640;28;20429;-76
2022/06/03 08:46:26;;;;;;;13.00;7.73;;;23.20;66.70;;;;;;5048442;28;20532;-76
2022/06/03 08:49:01;;;;;;;11.73;7.00;;;23.30;66.10;;;;;;5049629;28;20968;-77
2022/06/03 08:51:37;;;;;;;8.40;5.97;;;23.40;65.70;;;;;;5049812;28;20417;-76
2022/06/03 08:54:17;;;;;;;8.10;6.70;;;23.40;65.70;;;;;;5053252;28;20429;-76
2022/06/03 08:56:46;;;;;;;8.50;6.30;;;23.50;65.60;;;;;;5047992;28;21073;-76
2022/06/03 08:59:22;;;;;;;12.17;6.80;;;23.60;64.50;;;;;;5046299;28;20476;-75
2022/06/03 09:01:53;;;;;;;11.03;6.40;;;23.70;64.10;;;;;;5045510;28;20442;-76
2022/06/03 09:04:22;;;;;;;10.47;5.93;;;23.90;63.90;;;;;;5047064;28;21100;-75
2022/06/03 09:06:54;;;;;;;11.67;6.37;;;24.00;64.10;;;;;;5044449;28;20852;-75
2022/06/03 09:09:41;;;;;;;12.63;6.90;;;24.00;62.90;;;;;;5050599;28;20913;-76
2022/06/03 09:12:26;;;;;;;8.23;5.73;;;24.10;62.90;;;;;;5052429;28;20430;-74
2022/06/03 09:14:52;;;;;;;11.40;7.03;;;24.20;62.60;;;;;;5047709;28;20424;-75
2022/06/03 09:17:37;;;;;;;12.10;7.03;;;24.40;62.60;;;;;;5037419;28;20498;-76
2022/06/03 09:20:16;;;;;;;10.27;5.53;;;24.50;61.50;;;;;;5039217;28;20425;-75
2022/06/03 09:22:44;;;;;;;8.50;6.53;;;24.60;61.60;;;;;;5039587;28;20432;-76
2022/06/03 09:25:13;;;;;;;6.90;4.90;;;24.60;61.50;;;;;;5040884;28;20468;-75
2022/06/03 09:27:41;;;;;;;9.77;6.00;;;24.80;61.00;;;;;;5046112;28;21000;-75
2022/06/03 09:30:09;;;;;;;7.90;5.83;;;25.10;60.40;;;;;;5036815;28;20899;-76
2022/06/03 09:32:47;;;;;;;10.57;7.10;;;25.30;60.30;;;;;;5046726;28;20523;-77
2022/06/03 09:35:20;;;;;;;8.63;6.40;;;25.60;59.70;;;;;;5037036;28;20785;-75
2022/06/03 09:37:49;;;;;;;9.27;6.30;;;25.50;59.70;;;;;;5051116;28;20430;-75
2022/06/03 09:40:21;;;;;;;8.50;6.70;;;25.60;59.70;;;;;;5044778;28;20429;-75
2022/06/03 09:42:59;;;;;;;11.87;7.80;;;25.70;59.50;;;;;;5047563;28;20423;-75
2022/06/03 09:45:26;;;;;;;9.80;7.70;;;25.70;59.10;;;;;;5042999;28;20522;-75
2022/06/03 09:47:52;;;;;;;8.83;7.23;;;25.60;59.60;;;;;;5050039;28;20415;-75
2022/06/03 09:50:22;;;;;;;12.03;7.63;;;25.50;59.90;;;;;;5048029;28;20417;-73
2022/06/03 09:52:48;;;;;;;12.20;7.27;;;25.50;60.10;;;;;;5045777;28;20469;-74
2022/06/03 09:55:31;;;;;;;9.50;6.93;;;25.50;60.10;;;;;;5047640;28;20434;-74
2022/06/03 09:58:00;;;;;;;12.30;6.70;;;25.50;59.70;;;;;;5045637;28;20441;-74
2022/06/03 10:00:30;;;;;;;13.63;7.60;;;25.50;59.90;;;;;;5051520;28;20451;-75
2022/06/03 10:02:58;;;;;;;8.90;6.93;;;25.60;59.90;;;;;;5052823;28;20932;-74
2022/06/03 10:05:23;;;;;;;7.53;6.40;;;25.70;59.50;;;;;;5053608;28;20601;-74
2022/06/03 10:08:01;;;;;;;8.60;5.90;;;26.00;58.80;;;;;;5062279;28;20430;-73
2022/06/03 10:13:14;;;;;;;8.60;6.70;;;27.00;56.90;;;;;;5049034;28;20920;-74
2022/06/03 10:15:45;;;;;;;9.07;6.60;;;27.40;55.60;;;;;;5043873;28;20870;-76
2022/06/03 10:18:49;;;;;;;7.07;5.83;;;27.60;53.80;;;;;;5039780;28;20979;-75
2022/06/03 10:21:14;;;;;;;7.90;6.73;;;27.70;53.70;;;;;;5036439;28;20447;-74
2022/06/03 10:23:46;;;;;;;12.73;6.90;;;28.40;52.50;;;;;;5042489;28;20522;-74
2022/06/03 10:26:29;;;;;;;8.20;7.17;;;29.10;51.20;;;;;;5023458;28;20225;-74
2022/06/03 10:28:57;;;;;;;10.47;7.57;;;29.30;50.10;;;;;;5043339;28;20423;-76
2022/06/03 10:31:33;;;;;;;8.67;7.13;;;28.50;51.60;;;;;;5034292;28;20428;-76
2022/06/03 10:34:09;;;;;;;7.43;6.30;;;28.20;51.80;;;;;;5042449;28;20921;-76
2022/06/03 10:36:44;;;;;;;8.90;6.13;;;28.30;52.10;;;;;;5023615;28;20468;-75
2022/06/03 10:39:16;;;;;;;8.73;7.00;;;28.50;52.10;;;;;;5040056;28;20416;-74
2022/06/03 10:41:48;;;;;;;8.10;6.20;;;28.30;52.00;;;;;;5041187;28;20934;-75
2022/06/03 10:44:26;;;;;;;6.90;6.57;;;28.40;52.00;;;;;;5042393;28;20427;-75
2022/06/03 10:46:58;;;;;;;7.20;6.17;;;28.70;50.60;;;;;;5039943;28;21105;-75
2022/06/03 10:49:27;;;;;;;9.20;6.67;;;29.10;50.20;;;;;;5020062;28;20516;-75
2022/06/03 11:03:04;;;;;;;5.60;5.30;;;28.90;49.10;;;;;;5038712;28;20461;-75
2022/06/03 11:05:31;;;;;;;6.40;6.00;;;28.70;49.40;;;;;;5044190;28;20476;-74
2022/06/03 11:08:10;;;;;;;8.20;6.37;;;28.40;50.10;;;;;;5041175;28;20917;-75
2022/06/03 11:10:39;;;;;;;9.23;5.67;;;28.00;50.90;;;;;;5041831;28;20416;-75
2022/06/03 11:13:07;;;;;;;6.40;5.97;;;28.00;50.90;;;;;;5037819;28;20565;-75
2022/06/03 11:15:38;;;;;;;7.60;6.23;;;27.50;52.10;;;;;;5044331;28;20493;-75
2022/06/03 11:18:24;;;;;;;8.77;6.50;;;27.30;52.80;;;;;;5036952;28;20438;-74
2022/06/03 11:20:52;;;;;;;8.60;6.27;;;27.10;53.30;;;;;;5050405;28;20426;-74
2022/06/03 11:23:19;;;;;;;12.00;7.23;;;27.20;53.30;;;;;;5041653;28;20446;-75
2022/06/03 11:25:56;;;;;;;6.73;5.50;;;27.20;53.00;;;;;;5043311;28;20486;-75
2022/06/03 11:28:42;;;;;;;9.50;6.63;;;27.20;53.30;;;;;;5041416;28;20838;-74
2022/06/03 11:31:23;;;;;;;8.20;6.60;;;27.10;53.30;;;;;;5037784;28;20510;-74
2022/06/03 11:34:07;;;;;;;8.30;5.73;;;26.90;53.70;;;;;;5043172;28;20425;-76
2022/06/03 11:36:41;;;;;;;6.30;5.67;;;26.70;54.40;;;;;;5046948;28;20466;-75
2022/06/03 11:39:19;;;;;;;6.40;5.00;;;26.90;54.10;;;;;;5062307;28;20443;-74
2022/06/03 11:41:49;;;;;;;7.43;6.40;;;26.90;53.70;;;;;;5039006;28;20442;-74
2022/06/03 11:44:27;;;;;;;9.37;6.90;;;26.90;53.80;;;;;;5045585;28;20433;-74
2022/06/03 11:47:21;;;;;;;10.70;6.80;;;26.90;54.40;;;;;;5042737;28;20975;-74
2022/06/03 11:49:46;;;;;;;9.20;6.60;;;26.80;54.60;;;;;;5042102;28;20417;-72
2022/06/03 11:52:13;;;;;;;9.50;6.93;;;26.60;55.80;;;;;;5039908;28;20419;-73
2022/06/03 11:54:39;;;;;;;9.90;6.73;;;26.50;57.00;;;;;;5041595;28;20283;-74
2022/06/03 11:57:07;;;;;;;10.40;6.53;;;26.10;58.70;;;;;;5042015;28;20951;-74
2022/06/03 11:59:38;;;;;;;8.20;6.50;;;25.80;59.90;;;;;;5039577;28;20885;-74
2022/06/03 12:02:10;;;;;;;7.93;6.13;;;25.90;59.70;;;;;;5041345;28;20436;-75
2022/06/03 12:05:17;;;;;;;12.43;6.57;;;25.90;60.10;;;;;;5038721;28;20571;-73
2022/06/03 12:07:45;;;;;;;11.40;6.33;;;26.00;59.70;;;;;;5042079;28;20454;-76
2022/06/03 12:10:28;;;;;;;12.60;6.83;;;26.10;59.50;;;;;;5038591;28;20488;-75
2022/06/03 12:13:15;;;;;;;11.53;6.83;;;26.10;59.50;;;;;;5035322;28;20466;-75
2022/06/03 12:15:58;;;;;;;9.83;7.47;;;26.40;59.10;;;;;;5048871;28;20457;-77
2022/06/03 12:18:32;;;;;;;7.93;6.33;;;26.60;58.20;;;;;;5045985;28;20430;-77
2022/06/03 12:21:12;;;;;;;8.03;6.70;;;26.80;57.60;;;;;;5047375;28;20434;-77
2022/06/03 12:23:37;;;;;;;10.63;6.80;;;26.80;57.80;;;;;;5049083;28;20433;-77
2022/06/03 12:26:31;;;;;;;7.90;6.40;;;27.00;57.70;;;;;;5030773;28;20552;-78
2022/06/03 12:29:32;;;;;;;11.30;6.77;;;27.50;56.80;;;;;;5047234;28;20192;-75
2022/06/03 12:32:16;;;;;;;7.60;6.67;;;27.00;57.60;;;;;;4951717;28;20438;-76
2022/06/03 12:34:42;;;;;;;13.70;7.30;;;27.20;57.60;;;;;;4952522;29;20471;-73
2022/06/03 12:37:28;;;;;;;8.60;6.77;;;27.40;57.20;;;;;;4948501;29;20631;-73
2022/06/03 12:40:02;;;;;;;11.23;7.83;;;27.20;57.70;;;;;;4953002;29;20495;-72
2022/06/03 12:42:28;;;;;;;10.87;7.40;;;27.20;57.40;;;;;;4957901;28;20438;-73
2022/06/03 12:44:56;;;;;;;7.40;5.93;;;27.00;57.80;;;;;;4973773;28;20941;-75
2022/06/03 12:47:34;;;;;;;13.97;8.67;;;26.90;58.20;;;;;;4970649;28;20245;-77
2022/06/03 12:50:24;;;;;;;10.27;7.50;;;27.10;58.10;;;;;;4968040;28;20419;-74
2022/06/03 12:52:54;;;;;;;17.10;6.73;;;27.00;58.40;;;;;;4972206;28;20449;-73
2022/06/03 12:55:27;;;;;;;9.23;6.83;;;26.70;58.80;;;;;;4966473;28;20453;-73
2022/06/03 12:58:02;;;;;;;8.30;7.43;;;26.30;59.50;;;;;;4965122;28;20445;-72
2022/06/03 13:00:34;;;;;;;12.73;7.33;;;25.70;61.30;;;;;;4970131;28;20528;-71
2022/06/03 13:03:01;;;;;;;9.87;6.67;;;25.80;61.60;;;;;;4968924;28;21042;-72
2022/06/03 13:05:47;;;;;;;10.00;6.83;;;25.90;61.60;;;;;;4958214;28;20485;-73
2022/06/03 13:08:28;;;;;;;12.23;6.93;;;26.20;61.90;;;;;;5029576;28;20421;-72
2022/06/03 13:11:04;;;;;;;8.40;6.30;;;26.30;60.30;;;;;;5051599;28;20419;-72
2022/06/03 13:13:29;;;;;;;9.90;6.90;;;26.40;60.60;;;;;;5048852;28;20501;-75
2022/06/03 13:16:36;;;;;;;9.33;7.47;;;26.60;59.60;;;;;;5041896;28;20903;-72
2022/06/03 13:19:13;;;;;;;10.43;6.97;;;26.90;60.60;;;;;;5048100;28;20388;-72
2022/06/03 13:22:02;;;;;;;10.10;6.97;;;26.90;60.10;;;;;;5038358;28;20508;-72
2022/06/03 13:24:29;;;;;;;12.70;7.53;;;26.80;62.90;;;;;;5034126;28;20542;-75
2022/06/03 13:26:58;;;;;;;16.23;7.97;;;26.40;62.50;;;;;;5032345;28;20480;-71
2022/06/03 13:30:00;;;;;;;13.23;7.80;;;25.90;64.70;;;;;;5032719;28;20487;-71
2022/06/03 13:32:35;;;;;;;13.63;8.00;;;25.60;65.70;;;;;;5039926;28;20481;-72
2022/06/03 13:35:25;;;;;;;17.50;7.43;;;25.40;67.00;;;;;;5037720;28;20417;-73
2022/06/03 13:38:11;;;;;;;13.10;7.87;;;25.50;66.90;;;;;;5035115;28;20832;-74
2022/06/03 13:40:38;;;;;;;12.23;8.20;;;25.60;66.70;;;;;;5040943;28;20430;-72
2022/06/03 13:43:24;;;;;;;14.33;8.20;;;25.70;66.30;;;;;;5044577;28;20551;-75
2022/06/03 13:46:02;;;;;;;13.63;8.23;;;24.90;69.10;;;;;;5043221;28;21063;-72
2022/06/03 13:48:33;;;;;;;9.60;7.70;;;24.90;69.20;;;;;;5041275;28;20416;-74
2022/06/03 13:51:21;;;;;;;13.63;9.03;;;25.00;69.10;;;;;;5043986;28;20436;-74
2022/06/03 13:53:57;;;;;;;14.37;8.10;;;25.10;69.10;;;;;;5040405;28;20433;-71
2022/06/03 13:56:27;;;;;;;10.93;8.37;;;25.40;68.50;;;;;;5039541;28;20459;-72
2022/06/03 13:58:55;;;;;;;10.10;8.30;;;25.60;67.00;;;;;;5041898;28;20437;-72
2022/06/03 14:01:44;;;;;;;10.40;7.10;;;25.60;66.40;;;;;;5041802;28;20919;-73
2022/06/03 14:04:20;;;;;;;10.37;8.07;;;25.30;67.70;;;;;;5037276;28;20436;-73
2022/06/03 14:07:00;;;;;;;13.90;7.90;;;25.30;68.00;;;;;;5040232;28;20481;-74
2022/06/03 14:09:47;;;;;;;11.00;8.77;;;25.20;68.30;;;;;;5040626;28;20888;-73
2022/06/03 14:12:36;;;;;;;12.10;8.50;;;25.20;68.00;;;;;;5049369;28;20462;-72
2022/06/03 14:15:13;;;;;;;16.40;8.70;;;25.20;68.30;;;;;;5050167;28;20436;-74
2022/06/03 14:17:41;;;;;;;12.70;9.13;;;25.00;67.70;;;;;;5057001;28;20418;-72
2022/06/03 14:20:24;;;;;;;14.90;8.20;;;25.10;67.90;;;;;;5053376;28;20427;-73